Northwood, IA

2:01 AM CST on February 01, 2015 (GMT -0600)
Mason City Municipal | Change Station
CLOSE
Current Station
Airport
Location: Mason City,
Elevation: 1214 ft
Nearby Weather Stations
Active Advisory: Winter Storm Warning Active Notice: Record Report

Elev 1214 ft 43.16 °N, 93.33 °W | Updated 8 minutes ago

Snow
Snow
25 °F
Feels Like 11 °F
N
21
Wind Variable Wind from ENE

Today
High -- | Low -- °F
--% Chance of Precip.
Yesterday
High -- | Low -- °F
Precip. -- in
7:29 AM 5:24 PM
Waxing Gibbous, 94% visible
Pressure 30.02 in
Visibility 1.0 miles
Clouds Few 600 ft
Overcast 1100 ft
Windchill 11 °F
Dew Point 23 °F
Humidity 92%
Rainfall 0.02 in
Snow Depth Not available.
UV 0 out of 12
Pollen .10 out of 12
Air Quality Not available.
Flu Activity Not available.
METAR KMCW 010753Z AUTO 06018KT 1SM -SN BR FEW006 OVC011 M04/M05 A2999 RMK AO2 SLP166 P0001 T10391050

More Conditions Fewer Conditions

Pressure 30.02 in
Visibility 1.0 miles
Clouds Few 600 ft
Overcast 1100 ft
Windchill 11 °F
Dew Point 23 °F
Humidity 92%
Rainfall 0.02 in
Snow Depth Not available.
UV 0 out of 12
Pollen .10 out of 12
Air Quality Not available.
Flu Activity Not available.
METAR KMCW 010753Z AUTO 06018KT 1SM -SN BR FEW006 OVC011 M04/M05 A2999 RMK AO2 SLP166 P0001 T10391050

More Conditions Fewer Conditions

10-Day Weather Forecast

Almanac

Astronomy

Feb. 01, 2015 Rise Set
Actual Time
Civil Twilight
Nautical Twilight
Astronomical Twilight
Moon
Length of Visible Light
Length of Day
Tomorrow will be .
, % of the Moon is Illuminated

Today's Extremes

State Highs State Lows

Community

WunderPhotos

Upload Photos

1,792,327 photos uploaded!

WunderBlogs® & News

Nearby

Air Quality

  Air Quality AQ Index Pollutant
Not available.

Snow Depth

Station Depth Elevation

Earthquake Activity

City Distance Mag. Time & Date
Minimum magnitude displayed is 2.5.

Coastal Water Temperatures

Place Temperature

Nearby Weather Stations